Latest Coastal Weather Observations for Cape Willoughby

IDS60701

Issued at 9:41 pm CST Tuesday 23 July 2024 (issued every 10 minutes, with the page automatically refreshed every 10 minutes)

About coastal observations | Map of coastal stations | Coastal observations for SA | Marine services | Other Formats
Station Details ID: 022803 Name: CAPE WILLOUGHBY Lat: -35.84 Lon: 138.13 Height: 55.0 m
Data from the previous 72 hours. | See also: Recent months at Cape Willoughby
Date/Time
CST
Wind Sea
Height
m
Swell Vis
km
Cloud Weather Temp
°C
Press
MSL
hPa
Rain since
9am
mm
Dir  Spd
kts
Gust
kts
Height
m
Period
s
Dir
23/09:30pm N 27 33 - - - - - - - 14.6 1015.2 0.0
23/09:00pm N 27 32 - - - - - - - 14.6 1015.5 0.0
23/08:30pm N 29 34 - - - - - - - 15.0 1015.3 0.0
23/08:00pm N 27 32 - - - - - - - 15.0 1015.5 0.0
23/07:30pm N 26 31 - - - - - - - 14.9 1015.7 0.0
23/07:00pm N 25 28 - - - - - - - 14.7 1015.9 0.0
23/06:30pm N 23 25 - - - - - - - 14.5 1016.2 0.0
23/06:00pm N 23 25 - - - - - - - 14.4 1016.3 0.0
23/05:30pm N 25 28 - - - - - - - 14.6 1016.2 0.0
23/05:00pm N 25 28 - - - - - - - 14.8 1016.2 0.0
23/04:30pm N 24 28 - - - - - - - 15.2 1016.1 0.0
23/04:00pm NNW 25 29 - - - - - - - 15.9 1016.4 0.0
23/03:30pm N 24 29 - - - - - - - 16.4 1016.3 0.0
23/03:00pm N 23 27 - - - - - - - 15.7 1016.5 0.0
23/02:30pm N 24 30 - - - - - - - 16.0 1016.6 0.0
23/02:00pm N 24 29 - - - - - - - 16.3 1016.9 0.0
23/01:30pm N 27 31 - - - - - - - 16.2 1017.1 0.0
23/01:00pm N 24 28 - - - - - - - 16.1 1017.9 0.0
23/12:30pm N 28 32 - - - - - - - 16.0 1018.6 0.0
23/12:12pm N 26 37 - - - - - - - 15.5 1018.8 0.0
23/12:00pm NNW 29 33 - - - - - - - 15.4 1019.0 0.0
23/11:30am N 28 35 - - - - - - - 14.9 1019.3 0.0
23/11:00am NNW 28 33 - - - - - - - 13.7 1019.6 0.0
23/10:30am NNW 28 38 - - - - - - - 13.9 1019.7 0.0
23/10:00am NNW 26 36 - - - - - - - 14.0 1019.8 0.0
23/09:34am NNW 23 33 - - - - - - - 13.6 1019.8 0.0
23/09:30am NNW 23 30 - - - - - - - 13.6 1019.9 0.0
23/09:00am NNW 23 28 - - - - - - - 13.1 1019.8 0.0
23/08:30am NNW 28 35 - - - - - - - 12.7 1019.5 0.0
23/08:00am NNW 29 35 - - - - - - - 12.4 1019.6 0.0
23/07:30am NNW 30 35 - - - - - - - 12.4 1019.4 0.0
23/07:00am NNW 26 34 - - - - - - - 12.4 1019.5 0.0
23/06:30am NNW 26 33 - - - - - - - 12.3 1019.3 0.0
23/06:00am NNW 24 31 - - - - - - - 12.3 1019.4 0.0
23/05:30am NNW 19 25 - - - - - - - 12.2 1019.5 0.0
23/05:00am NNW 16 23 - - - - - - - 12.2 1019.5 0.0
23/04:30am NNW 18 23 - - - - - - - 12.4 1019.5 0.0
23/04:00am NNW 18 23 - - - - - - - 12.8 1019.7 0.0
23/03:30am NNW 18 23 - - - - - - - 12.7 1019.8 0.0
23/03:00am NNW 16 25 - - - - - - - 12.5 1019.9 0.0
23/02:30am NNW 17 24 - - - - - - - 12.7 1020.2 0.0
23/02:00am NNW 13 20 - - - - - - - 12.8 1020.6 0.0
23/01:30am NNW 18 21 - - - - - - - 12.8 1020.5 0.0
23/01:00am NNW 16 21 - - - - - - - 12.9 1020.6 0.0
23/12:30am NNW 15 20 - - - - - - - 13.1 1020.9 0.0
23/12:00am NNW 15 19 - - - - - - - 13.2 1021.2 0.0
 
Date/Time
CST
Wind Sea
Height
m
Swell Vis
km
Cloud Weather Temp
°C
Press
MSL
hPa
Rain since
9am
mm
Dir  Spd
kts
Gust
kts
Height
m
Period
s
Dir
22/11:30pm NNW 14 18 - - - - - - - 13.1 1021.6 0.0
22/11:00pm NNW 16 21 - - - - - - - 12.9 1021.9 0.0
22/10:30pm NNW 14 17 - - - - - - - 13.0 1022.1 0.0
22/10:00pm NNW 12 15 - - - - - - - 12.8 1022.1 0.0
22/09:30pm NNW 11 15 - - - - - - - 13.1 1022.3 0.0
22/09:00pm NNW 10 14 - - - - - - - 13.2 1022.2 0.0
22/08:30pm NNW 10 14 - - - - - - - 13.1 1022.4 0.0
22/08:00pm NNW 11 15 - - - - - - - 13.2 1022.2 0.0
22/07:30pm NNW 10 14 - - - - - - - 13.6 1022.2 0.0
22/07:00pm NNW 10 12 - - - - - - - 13.6 1022.1 0.0
22/06:30pm NNW 12 15 - - - - - - - 13.9 1022.0 0.0
22/06:00pm NNW 14 19 - - - - - - - 14.1 1021.7 0.0
22/05:30pm NNW 13 17 - - - - - - - 14.2 1021.8 0.0
22/05:00pm NNW 13 15 - - - - - - - 14.1 1021.7 0.0
22/04:30pm NNW 15 20 - - - - - - - 14.2 1021.5 0.0
22/04:00pm NNW 16 21 - - - - - - - 14.2 1021.4 0.0
22/03:30pm NNW 17 23 - - - - - - - 14.4 1021.2 0.0
22/03:00pm NNW 16 20 - - - - - - - 14.8 1021.2 0.0
22/02:30pm NNW 17 23 - - - - - - - 15.8 1021.2 0.0
22/02:00pm NNW 17 24 - - - - - - - 15.3 1021.2 0.0
22/01:37pm NNW 20 30 - - - - - - - 15.1 1021.2 0.0
22/01:30pm NNW 22 30 - - - - - - - 14.9 1021.1 0.0
22/01:00pm NNW 23 31 - - - - - - - 14.6 1021.4 0.0
22/12:30pm NNW 22 31 - - - - - - - 14.6 1021.9 0.0
22/12:02pm NNW 20 30 - - - - - - - 14.0 1022.4 0.0
22/12:00pm NNW 21 30 - - - - - - - 14.2 1022.4 0.0
22/11:30am NNW 22 31 - - - - - - - 13.3 1022.8 0.0
22/11:00am NNW 19 27 - - - - - - - 13.1 1023.1 0.0
22/10:30am NNW 22 26 - - - - - - - 13.1 1022.8 0.0
22/10:00am NNW 17 25 - - - - - - - 13.4 1022.7 0.0
22/09:30am NNW 13 15 - - - - - - - 13.6 1022.5 0.0
22/09:00am NNW 13 17 - - - - - - - 13.4 1022.3 0.0
22/08:30am NNW 15 20 - - - - - - - 13.3 1022.1 0.0
22/08:00am NNW 13 17 - - - - - - - 13.2 1021.8 0.0
22/07:30am NNW 14 18 - - - - - - - 13.2 1021.4 0.0
22/07:00am NNW 14 17 - - - - - - - 13.0 1021.3 0.0
22/06:30am NW 15 20 - - - - - - - 13.1 1021.0 0.0
22/06:00am NNW 14 18 - - - - - - - 13.1 1020.7 0.0
22/05:30am NW 15 18 - - - - - - - 13.1 1020.5 0.0
22/05:00am NW 14 17 - - - - - - - 13.1 1020.5 0.0
22/04:30am NW 17 21 - - - - - - - 13.2 1020.2 0.0
22/04:00am NW 16 21 - - - - - - - 13.1 1020.1 0.0
22/03:30am NW 16 23 - - - - - - - 13.0 1020.0 0.0
22/03:00am NW 16 23 - - - - - - - 12.9 1020.0 0.0
22/02:30am NW 16 21 - - - - - - - 12.9 1020.0 0.0
22/02:00am NW 18 22 - - - - - - - 13.0 1020.1 0.0
22/01:30am NW 17 23 - - - - - - - 13.1 1020.2 0.0
22/01:00am NW 16 21 - - - - - - - 13.0 1020.1 0.0
22/12:30am NW 16 20 - - - - - - - 13.0 1020.3 0.0
22/12:00am NW 16 22 - - - - - - - 13.3 1020.2 0.0
 
Date/Time
CST
Wind Sea
Height
m
Swell Vis
km
Cloud Weather Temp
°C
Press
MSL
hPa
Rain since
9am
mm
Dir  Spd
kts
Gust
kts
Height
m
Period
s
Dir
21/11:30pm NW 16 24 - - - - - - - 13.3 1020.4 0.0
21/11:00pm NW 15 20 - - - - - - - 13.1 1020.4 0.0
21/10:30pm NW 15 20 - - - - - - - 13.0 1020.3 0.0
21/10:00pm NW 16 21 - - - - - - - 13.3 1020.2 0.0
21/09:30pm NW 16 23 - - - - - - - 13.3 1020.2 0.0
21/09:00pm NW 16 20 - - - - - - - 13.4 1020.3 0.0
21/08:30pm NW 17 23 - - - - - - - 13.6 1020.0 0.0
21/08:00pm NW 15 20 - - - - - - - 13.5 1019.9 0.0
21/07:30pm NW 15 21 - - - - - - - 13.7 1019.6 0.0
21/07:00pm NW 15 19 - - - - - - - 13.9 1019.6 0.0
21/06:30pm NW 16 21 - - - - - - - 13.9 1019.4 0.0
21/06:00pm NW 16 23 - - - - - - - 13.9 1019.2 0.0
21/05:30pm NW 18 23 - - - - - - - 13.8 1019.1 0.0
21/05:00pm NW 18 25 - - - - - - - 14.1 1019.0 0.0
21/04:30pm NW 18 22 - - - - - - - 14.3 1018.8 0.0
21/04:00pm NW 19 26 - - - - - - - 14.3 1018.8 0.0
21/03:30pm NW 18 25 - - - - - - - 14.7 1018.6 0.0
21/03:00pm NW 19 24 - - - - - - - 14.6 1018.5 0.0
21/02:30pm NW 20 29 - - - - - - - 14.9 1018.1 0.0
21/02:02pm NNW 19 29 - - - - - - - 14.4 1018.2 0.0
21/02:00pm NNW 20 29 - - - - - - - 14.4 1018.2 0.0
21/01:30pm NNW 20 26 - - - - - - - 15.1 1018.2 0.0
21/01:00pm NNW 19 26 - - - - - - - 14.4 1018.7 0.0
21/12:30pm NNW 17 24 - - - - - - - 13.8 1019.2 0.0
21/12:00pm NW 18 24 - - - - - - - 13.9 1019.4 0.0
21/11:30am NNW 18 23 - - - - - - - 14.0 1019.6 0.0
21/11:00am NNW 20 27 - - - - - - - 13.9 1019.6 0.0
21/10:30am NNW 18 25 - - - - - - - 14.0 1019.7 0.0
21/10:00am NNW 17 23 - - - - - - - 13.7 1019.7 0.0
21/09:30am NW 17 21 - - - - - - - 13.7 1019.5 0.0
21/09:00am NW 15 19 - - - - - - - 13.3 1019.4 1.0
21/08:30am NW 16 20 - - - - - - - 13.1 1019.1 1.0
21/08:00am NW 16 21 - - - - - - - 12.8 1019.0 1.0
21/07:30am NW 16 22 - - - - - - - 12.6 1018.8 1.0
21/07:00am NW 14 18 - - - - - - - 12.4 1018.7 1.0
21/06:30am NW 13 17 - - - - - - - 12.7 1018.5 1.0
21/06:00am NW 14 20 - - - - - - - 12.9 1018.2 1.0
21/05:30am NW 15 21 - - - - - - - 13.2 1018.1 1.0
21/05:00am NW 15 19 - - - - - - - 12.8 1018.0 1.0
21/04:30am NW 15 19 - - - - - - - 12.9 1017.9 1.0
21/04:00am NW 15 20 - - - - - - - 12.8 1018.0 1.0
21/03:30am NW 14 18 - - - - - - - 12.5 1018.0 1.0
21/03:00am NW 13 17 - - - - - - - 12.4 1018.2 1.0
21/02:30am NW 14 19 - - - - - - - 12.4 1018.3 1.0
21/02:00am NW 13 17 - - - - - - - 12.3 1018.6 1.0
21/01:30am NW 14 17 - - - - - - - 12.0 1018.6 1.0
21/01:00am NW 13 16 - - - - - - - 11.8 1018.6 1.0
21/12:30am NW 11 13 - - - - - - - 11.8 1018.9 1.0
21/12:00am NW 14 17 - - - - - - - 12.2 1018.9 1.0
 
Date/Time
CST
Wind Sea
Height
m
Swell Vis
km
Cloud Weather Temp
°C
Press
MSL
hPa
Rain since
9am
mm
Dir  Spd
kts
Gust
kts
Height
m
Period
s
Dir
20/11:30pm NW 12 15 - - - - - - - 12.0 1018.9 1.0
20/11:00pm NW 12 16 - - - - - - - 12.1 1018.9 1.0
20/10:30pm NW 13 16 - - - - - - - 11.8 1018.9 1.0
20/10:00pm NW 12 14 - - - - - - - 11.6 1018.9 1.0

Other formats

Comma delimited format used in spreadsheet applications
http://www.bom.gov.au/fwo/IDS60701/IDS60701.94822.axf

JavaScript Object Notation format (JSON) in row-major order
http://www.bom.gov.au/fwo/IDS60701/IDS60701.94822.json

Data quality

Most of these data are generated automatically and are frequently updated. Quality checks on data are not normally performed. It is possible for incorrect values to appear. Refer to information at About Latest Weather Observations and please check the disclaimer before using these data.